Time;durP1;ratioP1;P1;durP2;ratioP2;P2;SDS_P1;SDS_P2;PMS_P1;PMS_P2;Temp;Humidity;BMP_temperature;BMP_pressure;BME280_temperature;BME280_humidity;BME280_pressure;Samples;Min_cycle;Max_cycle;Signal;HPM_P1;HPM_P2
2023/09/02 00:00:56;;;;;;;;;;;23.70;71.20;;;;;;5074980;28;19913;-42
2023/09/02 00:03:22;;;;;;;;;;;23.70;71.20;;;;;;5068643;28;19963;-34
2023/09/02 00:05:48;;;;;;;;;;;23.60;71.10;;;;;;5072478;28;19913;-34
2023/09/02 00:08:14;;;;;;;;;;;23.70;71.10;;;;;;5049237;28;20116;-34
2023/09/02 00:10:40;;;;;;;;;;;23.70;71.20;;;;;;5061148;28;19908;-34
2023/09/02 00:13:05;;;;;;;;;;;23.70;71.30;;;;;;5066944;28;19962;-35
2023/09/02 00:15:31;;;;;;;;;;;23.70;71.50;;;;;;5065382;28;19959;-34
2023/09/02 00:17:57;;;;;;;;;;;23.60;70.80;;;;;;5066693;28;19951;-34
2023/09/02 00:20:23;;;;;;;;;;;23.60;70.50;;;;;;5063070;28;19919;-34
2023/09/02 00:22:49;;;;;;;;;;;23.60;70.50;;;;;;5060136;28;19943;-34
2023/09/02 00:25:15;;;;;;;;;;;23.60;71.20;;;;;;5065307;28;19908;-35
2023/09/02 00:27:41;;;;;;;;;;;23.60;70.50;;;;;;5063148;28;19917;-34
2023/09/02 00:30:07;;;;;;;;;;;23.60;70.50;;;;;;5046855;28;19912;-34
2023/09/02 00:32:33;;;;;;;;;;;23.60;70.50;;;;;;5060086;28;19912;-34
2023/09/02 00:35:01;;;;;;;;;;;23.60;70.50;;;;;;5061233;28;19952;-34
2023/09/02 00:37:26;;;;;;;;;;;23.60;70.50;;;;;;5059255;28;19920;-34
2023/09/02 00:39:52;;;;;;;;;;;23.60;70.60;;;;;;5045221;28;19919;-34
2023/09/02 00:42:19;;;;;;;;;;;23.60;70.60;;;;;;5067082;28;19955;-34
2023/09/02 00:44:46;;;;;;;;;;;23.60;70.60;;;;;;5067097;28;19917;-34
2023/09/02 00:47:32;;;;;;;;;;;23.60;70.70;;;;;;4963481;29;19915;-34
2023/09/02 00:50:00;;;;;;;;;;;23.60;70.80;;;;;;4963656;29;19920;-34
2023/09/02 00:52:25;;;;;;;;;;;23.60;70.70;;;;;;4963438;28;19970;-34
2023/09/02 00:54:51;;;;;;;;;;;23.60;71.00;;;;;;4964123;28;19929;-34
2023/09/02 00:57:17;;;;;;;;;;;23.60;71.00;;;;;;4963312;29;19943;-34
2023/09/02 00:59:43;;;;;;;;;;;23.60;71.20;;;;;;4963626;29;19954;-34
2023/09/02 01:02:09;;;;;;;;;;;23.60;71.30;;;;;;4963335;28;19921;-34
2023/09/02 01:04:35;;;;;;;;;;;23.60;71.40;;;;;;4936923;29;19915;-34
2023/09/02 01:07:02;;;;;;;;;;;23.60;71.40;;;;;;4962491;28;20779;-34
2023/09/02 01:09:29;;;;;;;;;;;23.60;71.60;;;;;;4963485;29;19921;-34
2023/09/02 01:11:55;;;;;;;;;;;23.60;71.80;;;;;;4963710;29;19981;-34
2023/09/02 01:14:21;;;;;;;;;;;23.60;71.80;;;;;;4962955;29;19958;-34
2023/09/02 01:16:46;;;;;;;;;;;23.60;72.00;;;;;;4962969;28;19951;-37
2023/09/02 01:19:13;;;;;;;;;;;23.60;71.90;;;;;;4964097;28;19914;-34
2023/09/02 01:21:41;;;;;;;;;;;23.60;71.90;;;;;;4963134;28;19910;-34
2023/09/02 01:24:26;;;;;;;;;;;23.60;71.80;;;;;;4974774;28;19913;-34
2023/09/02 01:27:11;;;;;;;;;;;23.60;72.00;;;;;;5066169;28;19982;-34
2023/09/02 01:29:41;;;;;;;;;;;23.60;72.10;;;;;;5060634;28;19912;-34
2023/09/02 01:32:08;;;;;;;;;;;23.60;72.10;;;;;;5072548;28;19919;-34
2023/09/02 01:34:34;;;;;;;;;;;23.60;72.00;;;;;;5063959;28;20653;-34
2023/09/02 01:36:59;;;;;;;;;;;23.60;71.80;;;;;;5046185;28;19917;-34
2023/09/02 01:39:25;;;;;;;;;;;23.60;71.80;;;;;;5055548;28;19976;-34
2023/09/02 01:41:51;;;;;;;;;;;23.60;71.80;;;;;;5037037;28;19931;-34
2023/09/02 01:44:17;;;;;;;;;;;23.60;72.20;;;;;;5036981;28;19976;-34
2023/09/02 01:46:43;;;;;;;;;;;23.60;72.30;;;;;;5055601;28;19913;-34
2023/09/02 01:49:09;;;;;;;;;;;23.60;72.50;;;;;;5066906;28;19966;-34
2023/09/02 01:51:35;;;;;;;;;;;23.60;72.50;;;;;;5065468;28;19924;-34
2023/09/02 01:54:00;;;;;;;;;;;23.60;72.70;;;;;;5044369;28;20006;-34
2023/09/02 01:56:26;;;;;;;;;;;23.60;72.70;;;;;;5072482;28;19915;-34
2023/09/02 01:58:53;;;;;;;;;;;23.60;72.80;;;;;;5069645;28;19913;-34
2023/09/02 02:01:18;;;;;;;;;;;23.60;72.80;;;;;;5064807;28;19912;-34
2023/09/02 02:04:08;;;;;;;;;;;23.60;72.70;;;;;;5072112;28;19966;-34
2023/09/02 02:06:34;;;;;;;;;;;23.60;72.60;;;;;;5068013;28;19912;-34
2023/09/02 02:09:10;;;;;;;;;;;23.60;72.60;;;;;;5046200;28;19909;-34
2023/09/02 02:11:37;;;;;;;;;;;23.60;72.60;;;;;;5031968;28;19937;-35
2023/09/02 02:14:03;;;;;;;;;;;23.60;72.30;;;;;;5059549;28;19912;-34
2023/09/02 02:16:29;;;;;;;;;;;23.60;72.30;;;;;;5065776;28;19913;-34
2023/09/02 02:18:55;;;;;;;;;;;23.60;72.10;;;;;;5052711;28;19913;-34
2023/09/02 02:21:21;;;;;;;;;;;23.60;72.10;;;;;;5054272;28;19916;-34
2023/09/02 02:23:47;;;;;;;;;;;23.60;72.30;;;;;;5048127;28;20385;-34
2023/09/02 02:26:13;;;;;;;;;;;23.60;72.30;;;;;;5055946;28;19912;-34
2023/09/02 02:28:39;;;;;;;;;;;23.60;72.50;;;;;;5068584;28;19935;-34
2023/09/02 02:31:05;;;;;;;;;;;23.60;72.90;;;;;;5077737;28;20011;-34
2023/09/02 02:33:31;;;;;;;;;;;23.60;73.00;;;;;;5067153;28;20599;-34
2023/09/02 02:35:57;;;;;;;;;;;23.60;73.10;;;;;;5051681;28;20493;-34
2023/09/02 02:38:23;;;;;;;;;;;23.60;73.00;;;;;;5055614;28;19912;-34
2023/09/02 02:40:49;;;;;;;;;;;23.60;73.10;;;;;;5056462;28;19916;-34
2023/09/02 02:43:15;;;;;;;;;;;23.60;73.00;;;;;;5059960;28;19956;-34
2023/09/02 02:45:41;;;;;;;;;;;23.60;72.80;;;;;;5055909;28;19940;-34
2023/09/02 02:48:14;;;;;;;;;;;23.60;72.60;;;;;;5063194;28;19967;-34
2023/09/02 02:50:40;;;;;;;;;;;23.60;72.40;;;;;;5049722;28;19912;-34
2023/09/02 02:53:07;;;;;;;;;;;23.60;72.30;;;;;;5057239;28;19931;-34
2023/09/02 02:55:33;;;;;;;;;;;23.60;72.30;;;;;;5067585;28;19912;-34
2023/09/02 02:57:59;;;;;;;;;;;23.60;72.20;;;;;;5059292;28;19935;-34
2023/09/02 03:00:25;;;;;;;;;;;23.60;72.30;;;;;;5076820;28;19908;-34
2023/09/02 03:02:52;;;;;;;;;;;23.60;72.40;;;;;;5063158;28;19944;-34
2023/09/02 03:05:19;;;;;;;;;;;23.60;72.40;;;;;;5062085;28;20540;-34
2023/09/02 03:07:45;;;;;;;;;;;23.60;72.50;;;;;;5053388;28;19916;-34
2023/09/02 03:10:11;;;;;;;;;;;23.60;72.80;;;;;;5051426;28;19913;-34
2023/09/02 03:12:37;;;;;;;;;;;23.60;72.80;;;;;;5040063;28;19919;-34
2023/09/02 03:15:03;;;;;;;;;;;23.50;72.70;;;;;;5053057;28;19935;-34
2023/09/02 03:17:30;;;;;;;;;;;23.60;72.90;;;;;;5055303;28;19967;-33
2023/09/02 03:19:55;;;;;;;;;;;23.60;72.90;;;;;;5048737;28;20429;-34
2023/09/02 03:22:21;;;;;;;;;;;23.50;72.70;;;;;;5061401;28;19921;-34
2023/09/02 03:24:52;;;;;;;;;;;23.50;72.50;;;;;;5062602;28;19913;-33
2023/09/02 03:27:18;;;;;;;;;;;23.50;72.20;;;;;;5069462;28;19913;-34
2023/09/02 03:29:47;;;;;;;;;;;23.50;72.20;;;;;;5074812;28;19916;-34
2023/09/02 03:32:13;;;;;;;;;;;23.50;72.00;;;;;;5059361;28;19999;-34
2023/09/02 03:34:38;;;;;;;;;;;23.50;72.00;;;;;;5077219;28;19909;-34
2023/09/02 03:37:04;;;;;;;;;;;23.50;71.90;;;;;;5063612;28;19948;-34
2023/09/02 03:39:33;;;;;;;;;;;23.50;71.90;;;;;;5067177;28;19919;-34
2023/09/02 03:41:59;;;;;;;;;;;23.50;71.90;;;;;;5062115;28;20031;-34
2023/09/02 03:44:25;;;;;;;;;;;23.50;71.90;;;;;;5065414;28;19917;-34
2023/09/02 03:46:51;;;;;;;;;;;23.50;72.40;;;;;;5078016;28;19909;-34
2023/09/02 03:49:17;;;;;;;;;;;23.50;72.40;;;;;;5068564;28;19913;-33
2023/09/02 03:51:43;;;;;;;;;;;23.50;72.70;;;;;;5055859;28;19913;-34
2023/09/02 03:54:09;;;;;;;;;;;23.50;72.60;;;;;;5054292;28;19913;-34
2023/09/02 03:56:36;;;;;;;;;;;23.50;72.70;;;;;;5049694;28;19917;-34
2023/09/02 03:59:06;;;;;;;;;;;23.50;72.80;;;;;;5037337;28;20570;-34
2023/09/02 04:01:31;;;;;;;;;;;23.50;72.80;;;;;;5047736;28;19936;-34
2023/09/02 04:03:57;;;;;;;;;;;23.50;72.80;;;;;;5051281;28;19924;-33
2023/09/02 04:06:23;;;;;;;;;;;23.50;72.40;;;;;;5048335;28;19940;-34
2023/09/02 04:08:49;;;;;;;;;;;23.50;72.30;;;;;;5030489;28;19913;-34
2023/09/02 04:11:15;;;;;;;;;;;23.50;72.10;;;;;;5046813;28;19913;-34
2023/09/02 04:13:41;;;;;;;;;;;23.50;72.00;;;;;;5046337;28;19924;-34
2023/09/02 04:16:10;;;;;;;;;;;23.50;72.00;;;;;;5053412;28;19913;-34
2023/09/02 04:18:36;;;;;;;;;;;23.50;72.00;;;;;;5051993;28;20254;-34
2023/09/02 04:21:03;;;;;;;;;;;23.50;71.90;;;;;;5050862;28;22845;-34
2023/09/02 04:23:29;;;;;;;;;;;23.50;72.00;;;;;;5043714;28;19931;-34
2023/09/02 04:25:55;;;;;;;;;;;23.50;72.20;;;;;;5071656;28;19920;-34
2023/09/02 04:28:21;;;;;;;;;;;23.40;72.40;;;;;;5072721;28;19995;-34
2023/09/02 04:30:48;;;;;;;;;;;23.40;72.50;;;;;;5065253;28;20393;-34
2023/09/02 04:33:14;;;;;;;;;;;23.40;72.70;;;;;;5065819;28;19913;-34
2023/09/02 04:35:44;;;;;;;;;;;23.40;72.80;;;;;;5049341;28;20679;-34
2023/09/02 04:38:10;;;;;;;;;;;23.40;72.90;;;;;;5063086;28;19916;-34
2023/09/02 04:40:36;;;;;;;;;;;23.40;72.90;;;;;;5066632;28;19908;-34
2023/09/02 04:43:03;;;;;;;;;;;23.40;73.00;;;;;;5067937;28;19921;-34
2023/09/02 04:45:31;;;;;;;;;;;23.40;72.90;;;;;;5073648;28;20000;-34
2023/09/02 04:47:57;;;;;;;;;;;23.40;72.60;;;;;;5070172;28;19908;-34
2023/09/02 04:50:22;;;;;;;;;;;23.40;72.40;;;;;;5071553;28;19991;-34
2023/09/02 04:52:49;;;;;;;;;;;23.40;72.30;;;;;;5059149;28;19932;-34
2023/09/02 04:55:16;;;;;;;;;;;23.40;72.40;;;;;;5071746;28;19912;-35
2023/09/02 04:57:41;;;;;;;;;;;23.40;72.30;;;;;;5050545;28;19920;-34
2023/09/02 05:00:08;;;;;;;;;;;23.40;72.40;;;;;;5057266;28;19912;-34
2023/09/02 05:02:35;;;;;;;;;;;23.40;72.40;;;;;;5056427;28;19916;-34
2023/09/02 05:05:00;;;;;;;;;;;23.30;72.30;;;;;;5065781;28;19908;-34
2023/09/02 05:07:26;;;;;;;;;;;23.30;72.40;;;;;;5063519;28;19912;-34
2023/09/02 05:09:53;;;;;;;;;;;23.30;72.40;;;;;;5072423;28;19916;-34
2023/09/02 05:12:20;;;;;;;;;;;23.30;72.80;;;;;;5059336;28;19913;-34
2023/09/02 05:14:46;;;;;;;;;;;23.30;72.90;;;;;;5065506;28;19908;-34
2023/09/02 05:17:11;;;;;;;;;;;23.30;72.80;;;;;;5069844;28;19916;-34
2023/09/02 05:19:37;;;;;;;;;;;23.30;72.90;;;;;;5068091;28;19947;-33
2023/09/02 05:22:03;;;;;;;;;;;23.30;73.00;;;;;;5068016;28;19919;-33
2023/09/02 05:24:29;;;;;;;;;;;23.30;72.90;;;;;;5070166;28;19908;-34
2023/09/02 05:26:55;;;;;;;;;;;23.30;72.80;;;;;;5063949;28;20413;-34
2023/09/02 05:29:21;;;;;;;;;;;23.30;72.70;;;;;;5065168;28;19908;-34
2023/09/02 05:31:47;;;;;;;;;;;23.30;73.30;;;;;;5056665;28;19912;-34
2023/09/02 05:34:13;;;;;;;;;;;23.30;72.60;;;;;;5074196;28;19935;-34
2023/09/02 05:36:38;;;;;;;;;;;23.30;72.60;;;;;;5063746;28;19923;-34
2023/09/02 05:39:04;;;;;;;;;;;23.30;72.60;;;;;;5072559;28;19923;-34
2023/09/02 05:41:30;;;;;;;;;;;23.30;72.70;;;;;;5071058;28;19944;-34
2023/09/02 05:43:56;;;;;;;;;;;23.30;72.70;;;;;;5063335;28;19920;-34
2023/09/02 05:46:22;;;;;;;;;;;23.30;72.80;;;;;;5070522;28;19942;-34
2023/09/02 05:48:48;;;;;;;;;;;23.30;72.70;;;;;;5056980;28;19943;-33
2023/09/02 05:51:14;;;;;;;;;;;23.30;72.80;;;;;;5064244;28;19909;-34
2023/09/02 05:53:40;;;;;;;;;;;23.30;72.90;;;;;;5064630;28;19958;-34
2023/09/02 05:56:05;;;;;;;;;;;23.20;72.80;;;;;;5071658;28;19908;-34
2023/09/02 05:58:31;;;;;;;;;;;23.30;73.00;;;;;;5066555;28;19912;-34
2023/09/02 06:01:02;;;;;;;;;;;23.20;72.80;;;;;;5063733;28;19935;-33
2023/09/02 06:03:28;;;;;;;;;;;23.20;72.80;;;;;;5065830;28;19927;-34
2023/09/02 06:05:54;;;;;;;;;;;23.20;72.90;;;;;;5073433;28;19913;-34
2023/09/02 06:08:19;;;;;;;;;;;23.20;72.80;;;;;;5071537;28;19912;-34
2023/09/02 06:10:55;;;;;;;;;;;23.20;72.80;;;;;;5063476;28;19950;-33
2023/09/02 06:13:21;;;;;;;;;;;23.20;72.80;;;;;;5064762;28;20412;-34
2023/09/02 06:15:47;;;;;;;;;;;23.20;72.90;;;;;;5061420;28;19920;-34
2023/09/02 06:18:13;;;;;;;;;;;23.20;73.00;;;;;;5070966;28;19919;-33
2023/09/02 06:20:39;;;;;;;;;;;23.20;72.90;;;;;;5070396;28;19944;-34
2023/09/02 06:23:05;;;;;;;;;;;23.20;72.80;;;;;;5056461;28;19947;-34
2023/09/02 06:25:30;;;;;;;;;;;23.20;72.90;;;;;;5063395;28;19913;-33
2023/09/02 06:27:56;;;;;;;;;;;23.20;72.90;;;;;;5056614;28;19909;-34
2023/09/02 06:30:22;;;;;;;;;;;23.20;73.00;;;;;;5062459;28;19913;-34
2023/09/02 06:32:48;;;;;;;;;;;23.20;73.20;;;;;;5066355;28;19931;-34
2023/09/02 06:35:15;;;;;;;;;;;23.20;73.10;;;;;;5066947;28;19912;-34
2023/09/02 06:37:41;;;;;;;;;;;23.20;73.10;;;;;;5052110;28;19929;-33
2023/09/02 06:40:07;;;;;;;;;;;23.20;73.10;;;;;;5069859;28;19938;-34
2023/09/02 06:42:33;;;;;;;;;;;23.20;73.20;;;;;;5073947;28;19987;-34
2023/09/02 06:44:59;;;;;;;;;;;23.20;73.20;;;;;;5066626;28;19991;-34
2023/09/02 06:47:25;;;;;;;;;;;23.10;73.00;;;;;;5072210;28;19982;-34
2023/09/02 06:49:51;;;;;;;;;;;23.10;73.00;;;;;;5073101;28;19947;-33
2023/09/02 06:52:17;;;;;;;;;;;23.10;73.10;;;;;;5063842;28;19913;-34
2023/09/02 06:54:43;;;;;;;;;;;23.10;73.10;;;;;;5060561;28;19919;-34
2023/09/02 06:57:08;;;;;;;;;;;23.10;73.10;;;;;;5071213;28;19909;-33
2023/09/02 06:59:34;;;;;;;;;;;23.10;73.00;;;;;;5074365;28;19927;-34
2023/09/02 07:02:00;;;;;;;;;;;23.10;73.10;;;;;;5067698;28;19904;-34
2023/09/02 07:04:26;;;;;;;;;;;23.10;73.30;;;;;;5069552;28;19913;-33
2023/09/02 07:06:52;;;;;;;;;;;23.10;73.20;;;;;;5070936;28;19984;-34
2023/09/02 07:09:18;;;;;;;;;;;23.10;73.20;;;;;;5053321;28;19913;-34
2023/09/02 07:11:44;;;;;;;;;;;23.10;73.30;;;;;;5056989;28;20437;-36
2023/09/02 07:14:09;;;;;;;;;;;23.10;73.30;;;;;;5071408;28;20230;-34
2023/09/02 07:16:35;;;;;;;;;;;23.10;73.30;;;;;;5063486;28;19999;-33
2023/09/02 07:19:03;;;;;;;;;;;23.10;73.40;;;;;;5067744;28;19912;-34
2023/09/02 07:21:29;;;;;;;;;;;23.10;73.50;;;;;;5067791;28;19913;-34
2023/09/02 07:23:55;;;;;;;;;;;23.10;73.50;;;;;;5066351;28;19963;-34
2023/09/02 07:26:21;;;;;;;;;;;23.10;73.50;;;;;;5059761;28;19909;-33
2023/09/02 07:28:47;;;;;;;;;;;23.10;73.40;;;;;;5071620;28;19912;-34
2023/09/02 07:31:13;;;;;;;;;;;23.10;73.50;;;;;;5076977;28;19944;-34
2023/09/02 07:33:38;;;;;;;;;;;23.00;73.50;;;;;;5066957;28;19942;-33
2023/09/02 07:36:08;;;;;;;;;;;23.00;73.50;;;;;;5065526;28;20432;-34
2023/09/02 07:38:34;;;;;;;;;;;23.00;73.50;;;;;;5070154;28;19952;-34
2023/09/02 07:41:00;;;;;;;;;;;23.00;73.50;;;;;;5062620;28;20338;-33
2023/09/02 07:43:26;;;;;;;;;;;23.00;73.50;;;;;;5077028;28;19920;-35
2023/09/02 07:45:52;;;;;;;;;;;23.10;73.50;;;;;;5074414;28;19908;-34
2023/09/02 07:48:18;;;;;;;;;;;23.00;73.50;;;;;;5066375;28;19916;-34
2023/09/02 07:50:44;;;;;;;;;;;23.00;73.60;;;;;;5071788;28;20026;-34
2023/09/02 07:53:09;;;;;;;;;;;23.00;73.50;;;;;;5063657;28;19905;-33
2023/09/02 07:55:35;;;;;;;;;;;23.00;73.70;;;;;;5065447;28;19947;-34
2023/09/02 07:58:21;;;;;;;;;;;23.00;73.70;;;;;;5001893;28;19919;-34
2023/09/02 08:00:47;;;;;;;;;;;23.00;73.80;;;;;;5004436;28;19916;-34
2023/09/02 08:03:13;;;;;;;;;;;23.00;73.80;;;;;;5004810;28;19928;-34
2023/09/02 08:05:39;;;;;;;;;;;22.90;73.70;;;;;;5004829;28;19929;-34
2023/09/02 08:08:06;;;;;;;;;;;23.00;73.90;;;;;;5004173;28;20359;-33
2023/09/02 08:10:33;;;;;;;;;;;22.90;73.80;;;;;;5018224;28;19914;-34
2023/09/02 08:12:58;;;;;;;;;;;22.90;73.70;;;;;;5004207;28;19910;-34
2023/09/02 08:15:24;;;;;;;;;;;22.90;73.80;;;;;;5005841;28;19924;-33
2023/09/02 08:17:51;;;;;;;;;;;22.90;73.90;;;;;;5014798;28;19910;-33
2023/09/02 08:20:16;;;;;;;;;;;23.00;74.00;;;;;;5011189;28;19913;-34
2023/09/02 08:22:43;;;;;;;;;;;22.90;73.90;;;;;;5004559;28;19976;-33
2023/09/02 08:25:09;;;;;;;;;;;22.90;74.10;;;;;;5003921;28;19937;-34
2023/09/02 08:27:35;;;;;;;;;;;22.90;74.00;;;;;;5003288;28;19918;-35
2023/09/02 08:30:01;;;;;;;;;;;22.90;74.00;;;;;;5010001;28;19983;-34
2023/09/02 08:32:31;;;;;;;;;;;22.90;74.00;;;;;;5018073;28;19949;-33
2023/09/02 08:34:57;;;;;;;;;;;22.90;74.10;;;;;;5021478;28;19913;-34
2023/09/02 08:37:22;;;;;;;;;;;22.90;74.00;;;;;;5073159;28;19964;-34
2023/09/02 08:39:50;;;;;;;;;;;22.90;74.00;;;;;;5066246;28;19947;-34
2023/09/02 08:42:17;;;;;;;;;;;22.90;74.80;;;;;;5068423;28;20514;-33
2023/09/02 08:44:43;;;;;;;;;;;22.90;74.00;;;;;;5064930;28;19948;-34
2023/09/02 08:47:09;;;;;;;;;;;22.80;74.00;;;;;;5051644;28;19915;-34
2023/09/02 08:49:35;;;;;;;;;;;22.90;74.00;;;;;;5057614;28;19916;-34
2023/09/02 08:52:01;;;;;;;;;;;22.80;73.90;;;;;;5058860;28;19912;-34
2023/09/02 08:54:27;;;;;;;;;;;22.90;74.00;;;;;;5054014;28;19946;-34
2023/09/02 08:56:54;;;;;;;;;;;22.90;74.00;;;;;;5048926;28;19922;-34
2023/09/02 08:59:20;;;;;;;;;;;22.80;74.60;;;;;;5047464;28;19917;-34
2023/09/02 09:01:46;;;;;;;;;;;22.80;73.90;;;;;;5028757;28;19943;-34
2023/09/02 09:04:15;;;;;;;;;;;22.90;74.10;;;;;;5048242;28;19978;-34
2023/09/02 09:06:41;;;;;;;;;;;22.80;73.90;;;;;;5052214;28;20427;-34
2023/09/02 09:09:07;;;;;;;;;;;22.80;73.90;;;;;;5047505;28;19972;-33
2023/09/02 09:11:34;;;;;;;;;;;22.80;73.90;;;;;;5050254;28;20116;-34
2023/09/02 09:14:01;;;;;;;;;;;22.80;73.90;;;;;;5049723;28;19966;-34
2023/09/02 09:16:31;;;;;;;;;;;22.80;74.00;;;;;;5047493;28;19912;-34
2023/09/02 09:18:57;;;;;;;;;;;22.80;74.10;;;;;;5048614;28;20052;-35
2023/09/02 09:21:23;;;;;;;;;;;22.80;74.10;;;;;;5049661;28;21455;-34
2023/09/02 09:23:49;;;;;;;;;;;22.80;74.10;;;;;;5066613;28;19916;-34
2023/09/02 09:26:15;;;;;;;;;;;22.80;74.00;;;;;;5073988;28;19916;-34
2023/09/02 09:28:54;;;;;;;;;;;22.80;74.10;;;;;;5075398;28;19959;-34
2023/09/02 09:31:20;;;;;;;;;;;22.80;74.20;;;;;;5073047;28;19962;-35
2023/09/02 09:33:53;;;;;;;;;;;22.80;74.20;;;;;;5066551;28;19913;-34
2023/09/02 09:36:22;;;;;;;;;;;22.80;74.20;;;;;;5065040;28;19980;-33
2023/09/02 09:38:49;;;;;;;;;;;22.70;74.10;;;;;;5061332;28;19915;-35
2023/09/02 09:41:15;;;;;;;;;;;22.80;75.00;;;;;;5065121;28;19917;-34
2023/09/02 09:44:01;;;;;;;;;;;22.80;74.20;;;;;;5068777;28;19989;-34
2023/09/02 09:46:26;;;;;;;;;;;22.70;74.20;;;;;;4982696;28;19940;-35
2023/09/02 09:49:00;;;;;;;;;;;22.70;74.20;;;;;;4974717;28;19918;-34
2023/09/02 09:51:26;;;;;;;;;;;22.70;74.30;;;;;;4974662;28;19921;-34
2023/09/02 09:53:52;;;;;;;;;;;22.70;74.30;;;;;;4973591;28;19933;-34
2023/09/02 09:56:18;;;;;;;;;;;22.70;74.30;;;;;;4974767;28;20005;-34
2023/09/02 09:58:45;;;;;;;;;;;22.70;74.40;;;;;;4974845;28;19918;-35
2023/09/02 10:01:11;;;;;;;;;;;22.70;74.40;;;;;;4976310;28;20497;-34
2023/09/02 10:03:37;;;;;;;;;;;22.70;74.30;;;;;;4975702;28;19922;-34
2023/09/02 10:06:03;;;;;;;;;;;22.70;74.30;;;;;;4975296;28;20085;-34
2023/09/02 10:08:31;;;;;;;;;;;22.70;74.20;;;;;;4976582;28;19917;-35
2023/09/02 10:10:57;;;;;;;;;;;22.70;74.20;;;;;;4975271;28;19910;-34
2023/09/02 10:13:22;;;;;;;;;;;22.70;74.20;;;;;;4974455;28;19924;-34
2023/09/02 10:15:49;;;;;;;;;;;22.70;74.30;;;;;;4978690;28;19910;-34
2023/09/02 10:18:15;;;;;;;;;;;22.70;74.30;;;;;;4982383;28;19913;-34
2023/09/02 10:20:41;;;;;;;;;;;22.60;74.30;;;;;;4990146;28;19918;-34
2023/09/02 10:23:10;;;;;;;;;;;22.60;74.30;;;;;;5008060;28;19916;-34
2023/09/02 10:25:45;;;;;;;;;;;22.70;74.40;;;;;;5059895;28;19963;-34
2023/09/02 10:28:11;;;;;;;;;;;22.70;74.40;;;;;;5067722;28;19912;-34
2023/09/02 10:30:48;;;;;;;;;;;22.60;74.40;;;;;;5068149;28;19976;-34
2023/09/02 10:33:52;;;;;;;;;;;22.60;74.40;;;;;;5058905;28;19921;-34
2023/09/02 10:36:21;;;;;;;;;;;22.60;74.40;;;;;;5008796;28;19921;-34
2023/09/02 10:38:48;;;;;;;;;;;22.60;74.50;;;;;;5007291;28;19914;-34
2023/09/02 10:41:16;;;;;;;;;;;22.60;74.40;;;;;;5001165;28;19933;-38
2023/09/02 10:43:42;;;;;;;;;;;22.60;75.10;;;;;;5001106;28;19926;-34
2023/09/02 10:46:08;;;;;;;;;;;22.60;74.40;;;;;;5008061;28;19909;-34
2023/09/02 10:48:35;;;;;;;;;;;22.60;74.40;;;;;;5007423;28;19916;-34
2023/09/02 10:51:01;;;;;;;;;;;22.60;74.50;;;;;;5008195;28;19913;-34
2023/09/02 10:53:45;;;;;;;;;;;22.60;74.50;;;;;;4984857;28;20016;-34
2023/09/02 10:56:11;;;;;;;;;;;22.60;74.50;;;;;;5008328;28;19912;-35
2023/09/02 10:58:49;;;;;;;;;;;22.60;74.50;;;;;;5011620;28;19913;-34
2023/09/02 11:01:15;;;;;;;;;;;22.60;74.50;;;;;;5002395;28;19920;-34
2023/09/02 11:03:42;;;;;;;;;;;22.60;74.50;;;;;;5014559;28;19956;-34
2023/09/02 11:06:11;;;;;;;;;;;22.50;74.50;;;;;;5011827;28;19981;-34
2023/09/02 11:08:44;;;;;;;;;;;22.50;74.60;;;;;;5052033;28;19919;-34
2023/09/02 11:11:11;;;;;;;;;;;22.50;75.30;;;;;;5069650;28;19951;-34
2023/09/02 11:13:56;;;;;;;;;;;22.60;74.70;;;;;;5059432;28;19919;-34
2023/09/02 11:16:22;;;;;;;;;;;22.50;74.70;;;;;;5068455;28;19908;-34
2023/09/02 11:18:47;;;;;;;;;;;22.50;74.70;;;;;;5061531;28;19920;-34
2023/09/02 11:21:33;;;;;;;;;;;22.50;74.70;;;;;;5063645;28;20365;-34
2023/09/02 11:24:18;;;;;;;;;;;22.50;74.70;;;;;;5040960;28;19939;-35
2023/09/02 11:26:53;;;;;;;;;;;22.50;74.60;;;;;;5046657;28;19959;-34
2023/09/02 11:29:22;;;;;;;;;;;22.50;74.60;;;;;;5049887;28;19909;-34
2023/09/02 11:32:01;;;;;;;;;;;22.50;74.70;;;;;;5049202;28;20581;-34
2023/09/02 11:34:47;;;;;;;;;;;22.50;74.60;;;;;;4972111;28;19928;-34
2023/09/02 11:37:13;;;;;;;;;;;22.50;74.60;;;;;;4972088;28;19957;-33
2023/09/02 11:39:39;;;;;;;;;;;22.50;74.60;;;;;;4972413;28;19910;-34
2023/09/02 11:42:08;;;;;;;;;;;22.50;74.70;;;;;;4972380;28;19917;-34
2023/09/02 11:44:34;;;;;;;;;;;22.50;74.70;;;;;;4971966;28;19914;-34
2023/09/02 11:47:00;;;;;;;;;;;22.50;74.60;;;;;;4971731;28;20054;-35
2023/09/02 11:49:27;;;;;;;;;;;22.50;74.80;;;;;;4970425;28;19906;-35
2023/09/02 11:51:53;;;;;;;;;;;22.50;74.80;;;;;;4972780;28;19925;-34
2023/09/02 11:54:18;;;;;;;;;;;22.40;74.80;;;;;;4970815;28;19906;-34
2023/09/02 11:57:03;;;;;;;;;;;22.50;74.80;;;;;;4979854;28;19985;-34
2023/09/02 11:59:28;;;;;;;;;;;22.40;74.80;;;;;;4978324;28;19921;-34
2023/09/02 12:02:10;;;;;;;;;;;22.40;74.90;;;;;;4985251;28;20005;-34
2023/09/02 12:04:36;;;;;;;;;;;22.40;74.90;;;;;;4976030;28;19922;-34
2023/09/02 12:07:02;;;;;;;;;;;22.40;74.90;;;;;;4983374;28;19910;-34
2023/09/02 12:09:29;;;;;;;;;;;22.40;74.80;;;;;;4978397;28;19921;-34
2023/09/02 12:11:55;;;;;;;;;;;22.40;74.70;;;;;;5025742;28;19912;-34
2023/09/02 12:14:21;;;;;;;;;;;22.40;74.70;;;;;;5050017;28;19911;-34
2023/09/02 12:16:47;;;;;;;;;;;22.40;74.80;;;;;;5058340;28;19919;-34
2023/09/02 12:19:13;;;;;;;;;;;22.40;74.70;;;;;;5072236;28;19908;-34
2023/09/02 12:21:38;;;;;;;;;;;22.40;74.80;;;;;;5063526;28;19954;-34
2023/09/02 12:24:04;;;;;;;;;;;22.40;74.80;;;;;;5052379;28;19917;-37
2023/09/02 12:26:30;;;;;;;;;;;22.40;74.80;;;;;;5033201;28;19915;-34
2023/09/02 12:28:56;;;;;;;;;;;22.40;74.90;;;;;;5051456;28;19959;-34
2023/09/02 12:31:22;;;;;;;;;;;22.40;74.90;;;;;;5047738;28;20710;-34
2023/09/02 12:33:51;;;;;;;;;;;22.40;75.00;;;;;;5052406;28;19912;-34
2023/09/02 12:36:18;;;;;;;;;;;22.40;75.00;;;;;;5046412;28;19921;-37
2023/09/02 12:38:50;;;;;;;;;;;22.40;75.00;;;;;;5049811;28;19917;-34
2023/09/02 12:41:16;;;;;;;;;;;22.40;75.20;;;;;;5048975;28;19913;-35
2023/09/02 12:43:42;;;;;;;;;;;22.40;75.10;;;;;;5049954;28;20443;-34
2023/09/02 12:46:08;;;;;;;;;;;22.40;75.10;;;;;;5051656;28;19909;-34
2023/09/02 12:48:34;;;;;;;;;;;22.30;75.20;;;;;;5053879;28;20003;-34
2023/09/02 12:51:00;;;;;;;;;;;22.30;75.10;;;;;;5048179;28;19908;-35
2023/09/02 12:53:26;;;;;;;;;;;22.30;75.10;;;;;;5049813;28;19968;-34
2023/09/02 12:55:52;;;;;;;;;;;22.30;75.10;;;;;;5070284;28;19912;-34
2023/09/02 12:58:18;;;;;;;;;;;22.40;75.00;;;;;;5048129;28;19909;-34
2023/09/02 13:00:44;;;;;;;;;;;22.40;75.00;;;;;;5071959;28;19920;-35
2023/09/02 13:03:10;;;;;;;;;;;22.30;75.20;;;;;;5056969;28;19980;-34
2023/09/02 13:05:36;;;;;;;;;;;22.30;75.00;;;;;;5070922;28;19919;-34
2023/09/02 13:08:02;;;;;;;;;;;22.40;75.10;;;;;;5061947;28;19944;-34
2023/09/02 13:10:28;;;;;;;;;;;22.40;75.10;;;;;;5074180;28;19913;-34
2023/09/02 13:12:54;;;;;;;;;;;22.40;75.10;;;;;;5082792;28;19912;-34
2023/09/02 13:15:22;;;;;;;;;;;22.30;75.20;;;;;;5070094;28;19935;-34
2023/09/02 13:17:47;;;;;;;;;;;22.40;75.40;;;;;;5059891;28;19919;-34
2023/09/02 13:20:15;;;;;;;;;;;22.30;75.30;;;;;;5064802;28;19913;-34
2023/09/02 13:22:41;;;;;;;;;;;22.40;75.30;;;;;;5060077;28;19971;-34
2023/09/02 13:25:09;;;;;;;;;;;22.40;75.30;;;;;;5051093;28;19931;-34
2023/09/02 13:27:34;;;;;;;;;;;22.40;75.40;;;;;;5044731;28;19917;-35
2023/09/02 13:30:00;;;;;;;;;;;22.40;75.30;;;;;;5044934;28;19972;-34
2023/09/02 13:32:26;;;;;;;;;;;22.40;75.30;;;;;;5048735;28;20246;-34
2023/09/02 13:35:12;;;;;;;;;;;22.30;75.30;;;;;;5047261;28;19913;-34
2023/09/02 13:37:39;;;;;;;;;;;22.30;75.20;;;;;;5039438;28;19920;-34
2023/09/02 13:40:19;;;;;;;;;;;22.40;75.30;;;;;;5031211;28;19990;-34
2023/09/02 13:42:46;;;;;;;;;;;22.40;75.30;;;;;;5048301;28;19984;-35
2023/09/02 13:45:14;;;;;;;;;;;22.40;75.30;;;;;;5048980;28;19943;-34
2023/09/02 13:47:49;;;;;;;;;;;22.40;75.40;;;;;;5046773;28;20357;-34
2023/09/02 13:50:16;;;;;;;;;;;22.40;75.30;;;;;;5049341;28;19923;-34
2023/09/02 13:52:47;;;;;;;;;;;22.40;75.40;;;;;;5051069;28;19960;-34
2023/09/02 13:55:13;;;;;;;;;;;22.40;75.40;;;;;;5062299;28;20437;-35
2023/09/02 13:57:39;;;;;;;;;;;22.40;75.40;;;;;;5045098;28;19909;-34
2023/09/02 14:00:12;;;;;;;;;;;22.40;75.50;;;;;;5063664;28;19930;-34
2023/09/02 14:02:38;;;;;;;;;;;22.40;75.40;;;;;;5049364;28;19971;-34
2023/09/02 14:05:04;;;;;;;;;;;22.40;75.40;;;;;;5072250;28;19908;-34
2023/09/02 14:07:30;;;;;;;;;;;22.40;75.50;;;;;;5043049;28;19932;-34
2023/09/02 14:09:56;;;;;;;;;;;22.40;75.30;;;;;;5058488;28;19913;-34
2023/09/02 14:12:22;;;;;;;;;;;22.40;75.30;;;;;;5070152;28;20029;-34
2023/09/02 14:14:48;;;;;;;;;;;22.40;75.30;;;;;;5038923;28;19976;-34
2023/09/02 14:17:14;;;;;;;;;;;22.40;75.20;;;;;;5055346;28;19928;-34